createdAt,value
2022-08-04T00:00:40.738Z,2.05
2022-08-04T00:03:08.454Z,1.88
2022-08-04T00:05:34.925Z,1.83
2022-08-04T00:07:49.639Z,1.83
2022-08-04T00:10:02.392Z,1.63
2022-08-04T00:12:07.162Z,2.38
2022-08-04T00:14:13.994Z,2.13
2022-08-04T00:16:15.783Z,1.63
2022-08-04T00:18:18.654Z,2.00
2022-08-04T00:20:21.824Z,2.05
2022-08-04T00:22:27.999Z,2.30
2022-08-04T00:24:34.122Z,2.22
2022-08-04T00:26:36.789Z,1.80
2022-08-04T00:28:38.819Z,2.20
2022-08-04T00:30:42.652Z,1.90
2022-08-04T00:32:44.400Z,2.42
2022-08-04T00:34:47.006Z,1.67
2022-08-04T00:36:48.921Z,2.17
2022-08-04T00:38:51.793Z,2.30
2022-08-04T00:41:03.002Z,2.33
2022-08-04T00:43:22.102Z,2.40
2022-08-04T00:46:10.930Z,2.85
2022-08-04T00:48:22.416Z,2.10
2022-08-04T00:51:05.767Z,2.42
2022-08-04T00:53:14.155Z,2.35
2022-08-04T00:55:50.040Z,2.47
2022-08-04T00:58:21.387Z,2.10
2022-08-04T01:00:23.808Z,2.28
2022-08-04T01:02:45.093Z,2.13
2022-08-04T01:05:05.757Z,2.40
2022-08-04T01:07:07.916Z,1.90
2022-08-04T01:09:36.745Z,1.80
2022-08-04T01:11:58.388Z,2.58
2022-08-04T01:14:36.638Z,2.40
2022-08-04T01:16:49.003Z,1.73
2022-08-04T01:19:00.905Z,1.90
2022-08-04T01:21:30.244Z,1.98
2022-08-04T01:23:59.748Z,2.47
2022-08-04T01:26:43.895Z,2.20
2022-08-04T01:29:03.184Z,2.42
2022-08-04T01:31:21.039Z,1.83
2022-08-04T01:33:23.366Z,2.50
2022-08-04T01:35:47.625Z,2.05
2022-08-04T01:37:59.131Z,2.00
2022-08-04T01:40:05.619Z,1.98
2022-08-04T01:42:09.696Z,2.33
2022-08-04T01:44:13.204Z,3.13
2022-08-04T01:46:17.033Z,2.47
2022-08-04T01:48:25.022Z,2.00
2022-08-04T01:50:28.429Z,1.73
2022-08-04T01:52:32.232Z,2.28
2022-08-04T01:54:39.427Z,1.58
2022-08-04T01:56:42.193Z,2.08
2022-08-04T01:58:43.959Z,2.00
2022-08-04T02:00:57.665Z,2.35
2022-08-04T02:02:59.522Z,2.65
2022-08-04T02:05:01.349Z,2.00
2022-08-04T02:07:28.181Z,1.90
2022-08-04T02:09:54.280Z,2.45
2022-08-04T02:12:34.079Z,2.08
2022-08-04T02:14:46.157Z,2.40
2022-08-04T02:16:52.353Z,2.30
2022-08-04T02:19:14.610Z,2.70
2022-08-04T02:21:19.519Z,1.98
2022-08-04T02:23:27.301Z,2.35
2022-08-04T02:25:32.552Z,2.10
2022-08-04T02:27:59.387Z,2.15
2022-08-04T02:30:06.263Z,1.83
2022-08-04T02:32:15.843Z,2.60
2022-08-04T02:34:23.636Z,1.73
2022-08-04T02:36:31.739Z,2.35
2022-08-04T02:38:56.429Z,2.28
2022-08-04T02:41:00.616Z,2.17
2022-08-04T02:43:04.270Z,1.98
2022-08-04T02:45:07.320Z,2.42
2022-08-04T02:47:11.205Z,2.05
2022-08-04T02:49:14.241Z,2.72
2022-08-04T02:51:25.063Z,2.28
2022-08-04T02:53:27.298Z,2.25
2022-08-04T02:55:30.596Z,2.15
2022-08-04T02:57:33.168Z,2.17
2022-08-04T03:00:03.264Z,2.25
2022-08-04T03:02:05.163Z,2.72
2022-08-04T03:04:31.859Z,2.17
2022-08-04T03:07:14.484Z,2.78
2022-08-04T03:09:29.588Z,2.22
2022-08-04T03:12:07.173Z,2.35
2022-08-04T03:14:09.622Z,2.30
2022-08-04T03:16:18.070Z,2.28
2022-08-04T03:18:55.184Z,2.35
2022-08-04T03:21:02.656Z,3.25
2022-08-04T03:23:19.622Z,2.45
2022-08-04T03:25:32.485Z,2.20
2022-08-04T03:28:00.543Z,2.60
2022-08-04T03:30:17.842Z,2.38
2022-08-04T03:32:37.944Z,2.33
2022-08-04T03:34:59.171Z,2.20
2022-08-04T03:37:18.158Z,2.40
2022-08-04T03:39:44.333Z,2.03
2022-08-04T03:42:05.218Z,1.88
2022-08-04T03:44:38.559Z,1.95
2022-08-04T03:47:08.069Z,2.63
2022-08-04T03:49:33.269Z,2.83
2022-08-04T03:52:17.230Z,2.78
2022-08-04T03:54:37.578Z,2.25
2022-08-04T03:56:56.812Z,2.50
2022-08-04T03:59:24.968Z,2.33
2022-08-04T04:02:10.865Z,2.28
2022-08-04T04:04:31.421Z,2.08
2022-08-04T04:07:19.514Z,2.15
2022-08-04T04:09:58.149Z,2.10
2022-08-04T04:12:39.602Z,2.13
2022-08-04T04:14:53.034Z,2.55
2022-08-04T04:17:05.344Z,2.70
2022-08-04T04:19:37.560Z,2.38
2022-08-04T04:22:13.129Z,2.65
2022-08-04T04:24:20.825Z,2.65
2022-08-04T04:26:59.835Z,2.60
2022-08-04T04:29:20.036Z,2.45
2022-08-04T04:31:40.669Z,2.50
2022-08-04T04:33:59.879Z,2.45
2022-08-04T04:36:24.449Z,2.38
2022-08-04T04:38:59.497Z,2.78
2022-08-04T04:41:16.165Z,2.63
2022-08-04T04:43:20.838Z,2.53
2022-08-04T04:45:35.098Z,2.75
2022-08-04T04:48:08.301Z,2.22
2022-08-04T04:50:16.003Z,2.75
2022-08-04T04:52:34.796Z,3.08
2022-08-04T04:55:00.303Z,2.50
2022-08-04T04:57:23.176Z,2.42
2022-08-04T05:00:07.689Z,2.97
2022-08-04T05:02:44.150Z,2.78
2022-08-04T05:05:19.467Z,2.55
2022-08-04T05:07:50.484Z,2.67
2022-08-04T05:10:03.912Z,2.25
2022-08-04T05:14:33.170Z,2.15
2022-08-04T05:14:48.327Z,2.85
2022-08-04T05:17:13.190Z,2.42
2022-08-04T05:19:25.581Z,2.47
2022-08-04T05:21:34.166Z,2.75
2022-08-04T05:23:38.525Z,2.25
2022-08-04T05:26:04.396Z,3.25
2022-08-04T05:28:28.044Z,3.28
2022-08-04T05:30:31.355Z,2.15
2022-08-04T05:32:39.198Z,2.90
2022-08-04T05:34:52.117Z,2.72
2022-08-04T05:36:59.253Z,2.78
2022-08-04T05:39:01.728Z,2.08
2022-08-04T05:41:04.252Z,2.45
2022-08-04T05:43:07.010Z,2.95
2022-08-04T05:45:10.066Z,2.47
2022-08-04T05:47:13.100Z,2.38
2022-08-04T05:49:19.444Z,2.60
2022-08-04T05:51:24.707Z,2.13
2022-08-04T05:53:27.097Z,2.47
2022-08-04T05:55:58.470Z,2.30
2022-08-04T05:57:55.655Z,2.53
2022-08-04T05:59:59.954Z,2.63
2022-08-04T06:02:03.470Z,2.53
2022-08-04T06:04:11.462Z,2.50
2022-08-04T06:06:14.582Z,2.50
2022-08-04T06:08:16.415Z,2.58
2022-08-04T06:10:18.532Z,3.42
2022-08-04T06:12:29.264Z,2.22
2022-08-04T06:14:42.064Z,2.67
2022-08-04T06:16:48.194Z,2.90
2022-08-04T06:20:00.959Z,2.42
2022-08-04T06:21:22.514Z,2.50
2022-08-04T06:23:28.413Z,2.00
2022-08-04T06:25:33.109Z,2.20
2022-08-04T06:27:35.037Z,2.03
2022-08-04T06:29:40.377Z,2.10
2022-08-04T06:32:29.455Z,2.10
2022-08-04T06:34:06.342Z,1.95
2022-08-04T06:36:08.953Z,1.85
2022-08-04T06:38:11.733Z,2.47
2022-08-04T06:40:29.414Z,2.80
2022-08-04T06:42:34.502Z,2.47
2022-08-04T06:44:36.628Z,2.78
2022-08-04T06:46:41.386Z,2.58
2022-08-04T06:48:43.559Z,2.45
2022-08-04T06:51:30.774Z,2.90
2022-08-04T06:53:12.017Z,2.40
2022-08-04T06:55:13.936Z,1.80
2022-08-04T06:57:18.069Z,2.33
2022-08-04T06:59:20.423Z,2.92
2022-08-04T07:01:22.635Z,1.95
2022-08-04T07:03:25.199Z,2.15
2022-08-04T07:05:27.192Z,2.08
2022-08-04T07:07:36.695Z,3.05
2022-08-04T07:09:39.806Z,2.03
2022-08-04T07:11:44.645Z,1.80
2022-08-04T07:13:50.373Z,2.08
2022-08-04T07:15:52.862Z,1.95
2022-08-04T07:18:00.356Z,1.65
2022-08-04T07:20:03.951Z,1.98
2022-08-04T07:22:24.357Z,2.05
2022-08-04T07:24:31.733Z,1.90
2022-08-04T07:26:34.774Z,2.30
2022-08-04T07:28:36.646Z,1.90
2022-08-04T07:30:39.846Z,1.85
2022-08-04T07:32:43.840Z,1.98
2022-08-04T07:34:49.742Z,1.98
2022-08-04T07:36:55.663Z,1.95
2022-08-04T07:38:58.187Z,1.75
2022-08-04T07:41:01.495Z,1.65
2022-08-04T07:43:03.386Z,2.05
2022-08-04T07:45:05.651Z,1.63
2022-08-04T07:47:12.664Z,2.00
2022-08-04T07:49:55.064Z,1.40
2022-08-04T07:51:37.616Z,1.35
2022-08-04T07:53:54.794Z,1.92
2022-08-04T07:55:58.090Z,1.88
2022-08-04T07:58:00.859Z,1.98
2022-08-04T08:00:04.464Z,1.70
2022-08-04T08:02:07.486Z,1.60
2022-08-04T08:04:11.043Z,2.13
2022-08-04T08:06:17.922Z,2.22
2022-08-04T08:08:33.761Z,1.70
2022-08-04T08:10:36.104Z,1.60
2022-08-04T08:12:51.620Z,1.40
2022-08-04T08:14:54.297Z,1.70
2022-08-04T08:16:56.107Z,1.60
2022-08-04T08:18:57.799Z,1.83
2022-08-04T08:20:59.544Z,1.75
2022-08-04T08:23:02.205Z,1.80
2022-08-04T08:25:06.428Z,2.17
2022-08-04T08:27:08.669Z,1.90
2022-08-04T08:29:10.735Z,2.25
2022-08-04T08:31:12.605Z,2.15
2022-08-04T08:33:15.793Z,2.03
2022-08-04T08:35:18.171Z,2.30
2022-08-04T08:37:47.403Z,2.10
2022-08-04T08:40:14.159Z,2.47
2022-08-04T08:42:47.994Z,1.80
2022-08-04T08:44:57.433Z,1.73
2022-08-04T08:48:04.603Z,1.75
2022-08-04T08:50:27.017Z,2.05
2022-08-04T08:52:56.300Z,1.67
2022-08-04T08:55:18.541Z,1.77
2022-08-04T08:58:00.272Z,1.88
2022-08-04T09:00:16.919Z,1.85
2022-08-04T09:02:42.777Z,1.52
2022-08-04T09:04:58.343Z,1.50
2022-08-04T09:07:22.014Z,1.67
2022-08-04T09:09:45.740Z,1.75
2022-08-04T09:12:03.993Z,1.65
2022-08-04T09:14:06.309Z,1.20
2022-08-04T09:16:10.735Z,1.40
2022-08-04T09:18:24.223Z,1.45
2022-08-04T09:20:28.538Z,2.10
2022-08-04T09:22:38.650Z,1.42
2022-08-04T09:24:49.522Z,1.58
2022-08-04T09:26:59.743Z,1.80
2022-08-04T09:29:15.923Z,1.50
2022-08-04T09:31:22.803Z,1.27
2022-08-04T09:33:45.727Z,1.00
2022-08-04T09:36:09.159Z,1.10
2022-08-04T09:38:36.228Z,1.50
2022-08-04T09:41:04.629Z,1.00
2022-08-04T09:43:59.464Z,1.52
2022-08-04T09:46:28.417Z,1.45
2022-08-04T09:48:44.801Z,1.30
2022-08-04T09:50:55.404Z,1.30
2022-08-04T09:53:38.630Z,1.10
2022-08-04T09:55:53.737Z,1.00
2022-08-04T09:58:37.430Z,1.13
2022-08-04T10:00:51.689Z,0.98
2022-08-04T10:02:59.009Z,1.30
2022-08-04T10:05:04.074Z,0.90
2022-08-04T10:07:31.116Z,2.65
2022-08-04T10:09:54.767Z,1.20
2022-08-04T10:12:13.468Z,0.95
2022-08-04T10:14:38.057Z,0.90
2022-08-04T10:17:37.542Z,0.90
2022-08-04T10:19:40.964Z,1.05
2022-08-04T10:22:28.876Z,0.50
2022-08-04T10:24:36.759Z,0.68
2022-08-04T10:27:07.371Z,0.70
2022-08-04T10:29:20.196Z,0.80
2022-08-04T10:31:34.925Z,0.73
2022-08-04T10:33:51.976Z,0.95
2022-08-04T10:36:18.596Z,1.00
2022-08-04T10:38:27.365Z,0.80
2022-08-04T10:40:38.615Z,1.00
2022-08-04T10:42:54.337Z,1.27
2022-08-04T10:45:19.590Z,0.75
2022-08-04T10:47:26.462Z,0.70
2022-08-04T10:49:34.657Z,0.95
2022-08-04T10:52:03.616Z,0.88
2022-08-04T10:54:12.612Z,0.82
2022-08-04T10:56:20.278Z,0.70
2022-08-04T10:58:47.055Z,0.80
2022-08-04T11:00:57.171Z,0.70
2022-08-04T11:03:09.354Z,0.50
2022-08-04T11:05:43.847Z,1.00
2022-08-04T11:07:50.582Z,0.55
2022-08-04T11:09:52.702Z,0.73
2022-08-04T11:12:06.974Z,0.70
2022-08-04T11:14:12.164Z,0.70
2022-08-04T11:16:21.807Z,0.70
2022-08-04T11:18:26.364Z,0.60
2022-08-04T11:20:36.360Z,0.60
2022-08-04T11:22:44.852Z,0.68
2022-08-04T11:25:03.544Z,0.80
2022-08-04T11:27:16.896Z,0.70
2022-08-04T11:29:30.925Z,0.80
2022-08-04T11:31:35.935Z,0.45
2022-08-04T11:33:46.609Z,0.45
2022-08-04T11:36:14.895Z,0.47
2022-08-04T11:38:32.129Z,0.70
2022-08-04T11:41:02.982Z,0.80
2022-08-04T11:43:10.068Z,0.63
2022-08-04T11:45:16.814Z,1.02
2022-08-04T11:47:24.645Z,0.80
2022-08-04T11:49:56.496Z,0.77
2022-08-04T11:52:00.719Z,0.60
2022-08-04T11:54:02.683Z,0.68
2022-08-04T11:56:11.056Z,0.60
2022-08-04T11:58:13.148Z,0.80
2022-08-04T12:00:16.482Z,0.70
2022-08-04T12:02:38.084Z,0.80
2022-08-04T12:04:58.408Z,0.60
2022-08-04T12:07:30.899Z,0.90
2022-08-04T12:09:44.926Z,0.80
2022-08-04T12:12:21.089Z,0.93
2022-08-04T12:14:31.040Z,0.70
2022-08-04T12:16:39.170Z,0.70
2022-08-04T12:18:52.555Z,0.80
2022-08-04T12:21:01.169Z,0.40
2022-08-04T12:23:06.199Z,0.70
2022-08-04T12:25:12.212Z,0.70
2022-08-04T12:27:36.569Z,0.90
2022-08-04T12:29:40.744Z,0.50
2022-08-04T12:31:47.465Z,0.70
2022-08-04T12:34:09.242Z,0.68
2022-08-04T12:36:44.011Z,0.60
2022-08-04T12:38:52.994Z,0.63
2022-08-04T12:40:58.797Z,0.70
2022-08-04T12:43:10.881Z,0.90
2022-08-04T12:45:13.223Z,0.80
2022-08-04T12:47:26.893Z,0.73
2022-08-04T12:49:35.514Z,0.68
2022-08-04T12:52:08.066Z,0.68
2022-08-04T12:54:03.459Z,0.90
2022-08-04T12:56:07.560Z,0.82
2022-08-04T12:58:43.055Z,0.70
2022-08-04T13:00:41.689Z,0.80
2022-08-04T13:02:47.072Z,0.70
2022-08-04T13:04:51.304Z,0.80
2022-08-04T13:07:09.968Z,0.90
2022-08-04T13:09:18.294Z,0.75
2022-08-04T13:11:22.265Z,0.80
2022-08-04T13:13:28.436Z,1.00
2022-08-04T13:15:31.346Z,0.77
2022-08-04T13:17:49.031Z,1.60
2022-08-04T13:19:53.213Z,1.30
2022-08-04T13:22:03.081Z,0.80
2022-08-04T13:24:09.863Z,0.77
2022-08-04T13:26:43.251Z,0.73
2022-08-04T13:28:42.820Z,0.70
2022-08-04T13:30:46.575Z,0.70
2022-08-04T13:32:53.518Z,0.80
2022-08-04T13:34:56.376Z,0.70
2022-08-04T13:36:58.716Z,0.77
2022-08-04T13:39:07.506Z,0.80
2022-08-04T13:41:09.737Z,0.82
2022-08-04T13:44:16.068Z,0.80
2022-08-04T13:45:46.082Z,0.80
2022-08-04T13:47:49.105Z,0.60
2022-08-04T13:50:11.747Z,0.90
2022-08-04T13:52:17.064Z,0.75
2022-08-04T13:54:19.033Z,1.10
2022-08-04T13:56:22.323Z,0.60
2022-08-04T13:58:24.661Z,0.75
2022-08-04T14:00:30.118Z,0.80
2022-08-04T14:02:34.686Z,0.70
2022-08-04T14:04:41.590Z,0.80
2022-08-04T14:07:18.204Z,0.70
2022-08-04T14:09:35.373Z,0.70
2022-08-04T14:12:10.703Z,0.90
2022-08-04T14:14:20.708Z,0.63
2022-08-04T14:16:22.582Z,0.70
2022-08-04T14:18:29.745Z,0.60
2022-08-04T14:20:32.196Z,0.65
2022-08-04T14:22:36.001Z,0.80
2022-08-04T14:24:37.692Z,0.95
2022-08-04T14:26:39.772Z,0.70
2022-08-04T14:29:25.068Z,0.80
2022-08-04T14:31:19.234Z,0.90
2022-08-04T14:34:01.960Z,0.82
2022-08-04T14:35:57.632Z,0.75
2022-08-04T14:38:03.590Z,0.80
2022-08-04T14:40:17.888Z,0.95
2022-08-04T14:42:42.454Z,0.70
2022-08-04T14:44:58.414Z,0.90
2022-08-04T14:47:00.201Z,0.90
2022-08-04T14:49:03.094Z,0.90
2022-08-04T14:51:04.933Z,0.75
2022-08-04T14:53:29.488Z,0.80
2022-08-04T14:55:31.455Z,0.75
2022-08-04T14:58:32.726Z,1.00
2022-08-04T14:59:59.436Z,0.80
2022-08-04T15:02:05.190Z,0.90
2022-08-04T15:04:07.503Z,0.75
2022-08-04T15:06:14.303Z,0.70
2022-08-04T15:08:18.288Z,0.70
2022-08-04T15:10:20.550Z,0.70
2022-08-04T15:12:22.493Z,0.77
2022-08-04T15:14:37.729Z,0.77
2022-08-04T15:16:53.961Z,0.93
2022-08-04T15:18:56.740Z,0.77
2022-08-04T15:20:59.967Z,0.80
2022-08-04T15:23:08.665Z,0.90
2022-08-04T15:25:12.453Z,1.00
2022-08-04T15:27:18.293Z,0.70
2022-08-04T15:30:00.338Z,0.70
2022-08-04T15:32:06.198Z,0.70
2022-08-04T15:34:11.211Z,0.80
2022-08-04T15:36:16.751Z,0.60
2022-08-04T15:38:50.600Z,0.40
2022-08-04T15:41:06.459Z,0.73
2022-08-04T15:43:13.747Z,0.98
2022-08-04T15:45:19.232Z,0.85
2022-08-04T15:47:21.081Z,1.30
2022-08-04T15:49:24.947Z,1.08
2022-08-04T15:51:32.247Z,0.80
2022-08-04T15:54:01.422Z,1.30
2022-08-04T15:56:02.627Z,1.13
2022-08-04T15:58:09.819Z,0.70
2022-08-04T16:00:15.121Z,1.00
2022-08-04T16:02:32.524Z,1.00
2022-08-04T16:04:34.501Z,0.82
2022-08-04T16:06:37.028Z,0.80
2022-08-04T16:08:59.876Z,0.75
2022-08-04T16:11:01.753Z,1.10
2022-08-04T16:13:06.309Z,1.10
2022-08-04T16:15:41.366Z,0.93
2022-08-04T16:17:43.458Z,0.70
2022-08-04T16:19:47.638Z,1.33
2022-08-04T16:21:57.092Z,2.30
2022-08-04T16:24:21.913Z,1.02
2022-08-04T16:26:45.129Z,1.00
2022-08-04T16:28:47.812Z,1.70
2022-08-04T16:30:50.009Z,1.27
2022-08-04T16:32:52.173Z,0.73
2022-08-04T16:35:00.159Z,0.85
2022-08-04T16:37:04.533Z,0.90
2022-08-04T16:39:06.937Z,1.15
2022-08-04T16:41:08.835Z,1.00
2022-08-04T16:43:18.367Z,0.88
2022-08-04T16:45:20.059Z,1.00
2022-08-04T16:47:47.599Z,1.00
2022-08-04T16:50:01.838Z,2.08
2022-08-04T16:52:13.631Z,0.90
2022-08-04T16:54:15.741Z,1.23
2022-08-04T16:56:20.710Z,0.80
2022-08-04T16:58:33.222Z,1.00
2022-08-04T17:00:38.787Z,0.88
2022-08-04T17:02:40.913Z,0.90
2022-08-04T17:04:42.927Z,1.00
2022-08-04T17:06:46.717Z,1.38
2022-08-04T17:08:49.501Z,1.33
2022-08-04T17:10:51.518Z,1.33
2022-08-04T17:14:00.879Z,0.77
2022-08-04T17:15:55.656Z,1.05
2022-08-04T17:18:40.263Z,0.90
2022-08-04T17:20:59.087Z,0.98
2022-08-04T17:24:14.553Z,1.00
2022-08-04T17:25:58.968Z,1.45
2022-08-04T17:28:19.054Z,0.80
2022-08-04T17:30:27.826Z,0.95
2022-08-04T17:32:29.738Z,1.00
2022-08-04T17:34:31.760Z,1.38
2022-08-04T17:36:34.841Z,1.20
2022-08-04T17:38:44.644Z,0.80
2022-08-04T17:40:57.260Z,0.65
2022-08-04T17:44:01.525Z,0.80
2022-08-04T17:47:52.590Z,0.90
2022-08-04T17:50:07.503Z,0.70
2022-08-04T17:52:32.214Z,0.80
2022-08-04T17:54:43.443Z,0.80
2022-08-04T17:56:52.113Z,0.70
2022-08-04T17:59:52.374Z,0.90
2022-08-04T18:01:56.518Z,0.95
2022-08-04T18:04:00.020Z,1.05
2022-08-04T18:06:12.213Z,1.55
2022-08-04T18:08:37.826Z,2.00
2022-08-04T18:10:51.828Z,3.92
2022-08-04T18:13:07.766Z,2.50
2022-08-04T18:15:25.448Z,2.42
2022-08-04T18:18:19.752Z,1.45
2022-08-04T18:20:18.902Z,1.60
2022-08-04T18:22:28.491Z,2.33
2022-08-04T18:24:35.359Z,1.80
2022-08-04T18:26:54.401Z,0.82
2022-08-04T18:28:56.163Z,0.90
2022-08-04T18:30:57.887Z,1.23
2022-08-04T18:33:10.518Z,1.15
2022-08-04T18:35:22.987Z,1.40
2022-08-04T18:38:03.056Z,1.80
2022-08-04T18:42:50.659Z,1.17
2022-08-04T18:44:53.661Z,1.23
2022-08-04T18:46:56.632Z,1.40
2022-08-04T18:48:58.363Z,2.58
2022-08-04T18:51:23.125Z,1.65
2022-08-04T18:53:23.515Z,1.77
2022-08-04T18:55:56.065Z,1.10
2022-08-04T18:58:00.952Z,1.08
2022-08-04T19:00:04.746Z,1.33
2022-08-04T19:02:13.700Z,1.35
2022-08-04T19:04:33.837Z,1.90
2022-08-04T19:06:38.901Z,1.10
2022-08-04T19:08:42.084Z,0.95
2022-08-04T19:10:44.568Z,1.10
2022-08-04T19:12:46.925Z,1.90
2022-08-04T19:14:55.190Z,1.15
2022-08-04T19:17:00.242Z,1.08
2022-08-04T19:19:05.823Z,1.45
2022-08-04T19:21:07.949Z,1.05
2022-08-04T19:24:30.268Z,1.10
2022-08-04T19:25:59.033Z,1.30
2022-08-04T19:27:54.897Z,1.00
2022-08-04T19:29:56.734Z,1.20
2022-08-04T19:31:58.514Z,1.13
2022-08-04T19:34:05.040Z,1.30
2022-08-04T19:36:09.525Z,1.10
2022-08-04T19:38:11.602Z,1.10
2022-08-04T19:40:17.857Z,1.00
2022-08-04T19:42:35.805Z,1.30
2022-08-04T19:44:44.550Z,1.42
2022-08-04T19:46:46.618Z,1.20
2022-08-04T19:48:59.746Z,1.45
2022-08-04T19:51:02.440Z,1.15
2022-08-04T19:53:18.865Z,1.08
2022-08-04T19:55:37.503Z,1.10
2022-08-04T19:57:49.424Z,1.00
2022-08-04T19:59:51.459Z,1.00
2022-08-04T20:01:56.779Z,1.00
2022-08-04T20:06:20.330Z,1.20
2022-08-04T20:08:23.964Z,1.20
2022-08-04T20:10:26.283Z,1.30
2022-08-04T20:12:30.471Z,1.50
2022-08-04T20:14:33.388Z,1.40
2022-08-04T20:16:35.584Z,1.20
2022-08-04T20:21:00.284Z,1.40
2022-08-04T20:23:02.723Z,1.38
2022-08-04T20:25:27.432Z,1.63
2022-08-04T20:27:51.740Z,1.13
2022-08-04T20:29:55.439Z,1.35
2022-08-04T20:32:08.773Z,1.38
2022-08-04T20:34:11.482Z,1.00
2022-08-04T20:36:13.252Z,1.20
2022-08-04T20:38:32.644Z,1.20
2022-08-04T20:40:36.739Z,1.20
2022-08-04T20:42:39.185Z,1.23
2022-08-04T20:44:46.249Z,2.60
2022-08-04T20:46:48.673Z,1.30
2022-08-04T20:48:50.918Z,1.10
2022-08-04T20:50:52.576Z,1.35
2022-08-04T20:52:54.294Z,1.05
2022-08-04T20:54:56.450Z,1.02
2022-08-04T20:56:59.689Z,1.42
2022-08-04T20:59:07.982Z,1.20
2022-08-04T21:01:10.998Z,1.17
2022-08-04T21:03:16.233Z,1.15
2022-08-04T21:05:18.145Z,1.13
2022-08-04T21:07:21.851Z,1.08
2022-08-04T21:11:47.314Z,1.02
2022-08-04T21:13:52.949Z,0.90
2022-08-04T21:15:59.186Z,0.98
2022-08-04T21:18:04.057Z,1.00
2022-08-04T21:20:07.057Z,0.95
2022-08-04T21:22:16.676Z,1.10
2022-08-04T21:24:31.785Z,1.20
2022-08-04T21:26:33.742Z,1.48
2022-08-04T21:28:35.561Z,1.35
2022-08-04T21:30:54.041Z,1.10
2022-08-04T21:32:56.899Z,1.05
2022-08-04T21:35:00.492Z,1.10
2022-08-04T21:37:09.414Z,1.15
2022-08-04T21:39:13.143Z,1.17
2022-08-04T21:41:24.091Z,1.30
2022-08-04T21:43:28.714Z,1.30
2022-08-04T21:45:36.260Z,1.02
2022-08-04T21:47:49.136Z,1.20
2022-08-04T21:49:56.403Z,0.88
2022-08-04T21:52:01.506Z,1.00
2022-08-04T21:54:11.570Z,1.38
2022-08-04T21:56:17.146Z,1.20
2022-08-04T21:58:32.703Z,1.10
2022-08-04T22:00:34.875Z,1.10
2022-08-04T22:02:36.586Z,1.30
2022-08-04T22:04:38.718Z,1.35
2022-08-04T22:06:40.936Z,0.98
2022-08-04T22:08:44.298Z,1.40
2022-08-04T22:10:51.365Z,1.30
2022-08-04T22:12:53.387Z,1.92
2022-08-04T22:14:57.611Z,1.38
2022-08-04T22:17:02.685Z,1.00
2022-08-04T22:19:06.155Z,1.20
2022-08-04T22:21:12.163Z,1.45
2022-08-04T22:23:17.062Z,1.52
2022-08-04T22:25:21.182Z,1.20
2022-08-04T22:27:41.626Z,1.10
2022-08-04T22:29:44.847Z,1.30
2022-08-04T22:31:53.363Z,1.35
2022-08-04T22:33:58.681Z,1.17
2022-08-04T22:36:01.683Z,1.30
2022-08-04T22:38:06.334Z,1.00
2022-08-04T22:40:26.346Z,1.00
2022-08-04T22:42:28.805Z,1.40
2022-08-04T22:44:33.741Z,1.67
2022-08-04T22:46:35.652Z,1.60
2022-08-04T22:48:38.920Z,1.65
2022-08-04T22:50:40.638Z,1.40
2022-08-04T22:52:55.874Z,1.20
2022-08-04T22:54:58.127Z,1.23
2022-08-04T22:57:00.042Z,1.58
2022-08-04T22:59:02.722Z,1.38
2022-08-04T23:01:04.744Z,2.17
2022-08-04T23:03:10.014Z,1.30
2022-08-04T23:05:15.727Z,1.80
2022-08-04T23:07:17.618Z,1.48
2022-08-04T23:09:49.589Z,1.40
2022-08-04T23:11:50.571Z,1.75
2022-08-04T23:13:59.791Z,1.35
2022-08-04T23:16:10.005Z,1.60
2022-08-04T23:18:12.277Z,1.88
2022-08-04T23:20:23.656Z,1.70
2022-08-04T23:22:41.272Z,1.30
2022-08-04T23:24:44.565Z,1.40
2022-08-04T23:26:49.543Z,1.63
2022-08-04T23:28:51.341Z,1.60
2022-08-04T23:30:56.025Z,1.30
2022-08-04T23:32:58.734Z,1.40
2022-08-04T23:35:00.544Z,1.63
2022-08-04T23:37:02.420Z,2.10
2022-08-04T23:39:06.350Z,1.65
2022-08-04T23:41:13.266Z,1.98
2022-08-04T23:43:17.966Z,2.05
2022-08-04T23:45:24.532Z,1.35
2022-08-04T23:48:15.764Z,2.22
2022-08-04T23:50:05.368Z,1.50
2022-08-04T23:52:07.718Z,1.33
2022-08-04T23:54:25.873Z,1.60
2022-08-04T23:56:28.066Z,1.50
2022-08-04T23:58:31.149Z,1.70
